Map

Track Data

SID SEASON NUMBER BASIN SUBBASIN NAME ISO_TIME NATURE LAT LON WMO_WIND WMO_PRES WMO_AGENCY TRACK_TYPE DIST2LAND LANDFALL IFLAG USA_AGENCY USA_ATCF_ID USA_LAT USA_LON USA_RECORD USA_STATUS USA_WIND USA_PRES USA_SSHS USA_R34_NE USA_R34_SE USA_R34_SW USA_R34_NW USA_R50_NE USA_R50_SE USA_R50_SW USA_R50_NW USA_R64_NE USA_R64_SE USA_R64_SW USA_R64_NW USA_POCI USA_ROCI USA_RMW USA_EYE TOKYO_LAT TOKYO_LON TOKYO_GRADE TOKYO_WIND TOKYO_PRES TOKYO_R50_DIR TOKYO_R50_LONG TOKYO_R50_SHORT TOKYO_R30_DIR TOKYO_R30_LONG TOKYO_R30_SHORT TOKYO_LAND CMA_LAT CMA_LON CMA_CAT CMA_WIND CMA_PRES HKO_LAT HKO_LON HKO_CAT HKO_WIND HKO_PRES NEWDELHI_LAT NEWDELHI_LON NEWDELHI_GRADE NEWDELHI_WIND NEWDELHI_PRES NEWDELHI_CI NEWDELHI_DP NEWDELHI_POCI REUNION_LAT REUNION_LON REUNION_TYPE REUNION_WIND REUNION_PRES REUNION_TNUM REUNION_CI REUNION_RMW REUNION_R34_NE REUNION_R34_SE REUNION_R34_SW REUNION_R34_NW REUNION_R50_NE REUNION_R50_SE REUNION_R50_SW REUNION_R50_NW REUNION_R64_NE REUNION_R64_SE REUNION_R64_SW REUNION_R64_NW BOM_LAT BOM_LON BOM_TYPE BOM_WIND BOM_PRES BOM_TNUM BOM_CI BOM_RMW BOM_R34_NE BOM_R34_SE BOM_R34_SW BOM_R34_NW BOM_R50_NE BOM_R50_SE BOM_R50_SW BOM_R50_NW BOM_R64_NE BOM_R64_SE BOM_R64_SW BOM_R64_NW BOM_ROCI BOM_POCI BOM_EYE BOM_POS_METHOD BOM_PRES_METHOD NADI_LAT NADI_LON NADI_CAT NADI_WIND NADI_PRES WELLINGTON_LAT WELLINGTON_LON WELLINGTON_WIND WELLINGTON_PRES DS824_LAT DS824_LON DS824_STAGE DS824_WIND DS824_PRES TD9636_LAT TD9636_LON TD9636_STAGE TD9636_WIND TD9636_PRES TD9635_LAT TD9635_LON TD9635_WIND TD9635_PRES TD9635_ROCI NEUMANN_LAT NEUMANN_LON NEUMANN_CLASS NEUMANN_WIND NEUMANN_PRES MLC_LAT MLC_LON MLC_CLASS MLC_WIND MLC_PRES USA_GUST BOM_GUST BOM_GUST_PER REUNION_GUST REUNION_GUST_PER USA_SEAHGT USA_SEARAD_NE USA_SEARAD_SE USA_SEARAD_SW USA_SEARAD_NW STORM_SPEED STORM_DIR
1956047S15124 1956 19 SI WA NOT_NAMED 1956-02-15 23:00:00 NR -14.9000 123.900 main 94 93 __________O___ -1 -14.9000 123.900 7 8 230
1956047S15124 1956 19 SI WA NOT_NAMED 1956-02-16 00:00:00 TS -14.9887 123.793 main 93 93 O________OP___ jtwc_sh SH221956 -15.0000 123.800 -1 -15.0000 123.800 TC -14.9775 123.787 7 9 235
1956047S15124 1956 19 SI WA NOT_NAMED 1956-02-16 01:00:00 TS -15.0747 123.643 996 bom main 102 102 P_____O__PP___ SH221956 -15.0581 123.681 -1 -15.2000 123.400 996 -15.0581 123.681 TC -15.0551 123.674 7 8 238
1956047S15124 1956 19 SI WA NOT_NAMED 1956-02-16 03:00:00 TS -15.2080 123.429 main 116 104 P_____P__PP___ SH221956 -15.1801 123.445 -1 -15.2833 123.339 -15.1801 123.445 TC -15.2121 123.449 7 7 235
1956047S15124 1956 19 SI WA NOT_NAMED 1956-02-16 06:00:00 TS -15.4166 123.135 main 110 100 O_____P__OP___ jtwc_sh SH221956 -15.4000 123.100 -1 -15.4090 123.248 -15.4000 123.100 TC -15.4555 123.119 7 7 230
1956047S15124 1956 19 SI WA NOT_NAMED 1956-02-16 09:00:00 TS -15.6553 122.878 main 89 79 P_____P__PP___ SH221956 -15.6850 122.778 -1 -15.5366 123.155 -15.6850 122.778 TC -15.7148 122.801 7 7 224
1956047S15124 1956 19 SI WA NOT_NAMED 1956-02-16 11:00:00 TS -15.8282 122.716 main 81 70 P_____P__PO___ SH221956 -15.8947 122.586 -1 -15.6234 123.092 -15.8947 122.586 TC -15.9000 122.600 7 7 221
1956047S15124 1956 19 SI WA NOT_NAMED 1956-02-16 12:00:00 TS -15.9161 122.641 main 74 61 O_____P__OP___ jtwc_sh SH221956 -16.0000 122.500 -1 -15.6674 123.059 -16.0000 122.500 TC -15.9970 122.503 7 7 218
1956047S15124 1956 19 SI WA NOT_NAMED 1956-02-16 15:00:00 TS -16.1729 122.435 main 61 54 P_____P__PP___ SH221956 -16.2925 122.270 -1 -15.8026 122.961 -16.2925 122.270 TC -16.3040 122.238 7 6 214
1956047S15124 1956 19 SI WA NOT_NAMED 1956-02-16 18:00:00 TS -16.4434 122.273 main 54 39 O_____P__OP___ jtwc_sh SH221956 -16.6000 122.100 -1 -15.9433 122.859 -16.6000 122.100 TC -16.6303 122.033 7 6 206
1956047S15124 1956 19 SI WA NOT_NAMED 1956-02-16 21:00:00 TS -16.7363 122.144 main 48 30 P_____P__PP___ SH221956 -16.9425 121.955 -1 -16.0908 122.752 -16.9425 121.955 TC -16.9696 121.916 7 6 199
1956047S15124 1956 19 SI WA NOT_NAMED 1956-02-16 23:00:00 TS -16.9387 122.097 main 30 24 P_____P__PO___ SH221956 -17.1807 121.905 -1 -16.1934 122.677 -17.1807 121.905 TC -17.2000 121.900 7 5 184
1956047S15124 1956 19 SI WA NOT_NAMED 1956-02-17 00:00:00 TS -16.9981 122.116 main 24 24 O_____P__OP___ jtwc_sh SH221956 -17.3000 121.900 -1 -16.2462 122.639 -17.3000 121.900 TC -17.3206 121.904 7 4 160
1956047S15124 1956 19 SI WA NOT_NAMED 1956-02-17 01:00:00 TS -17.0566 122.130 990 bom main 21 15 P_____O__PP___ SH221956 -17.4166 121.897 -1 -16.3000 122.600 990 -17.4166 121.897 TC -17.4431 121.921 7 4 170
1956047S15124 1956 19 SI WA NOT_NAMED 1956-02-17 03:00:00 TS -17.2113 122.146 main 15 0 P_____P__PP___ SH221956 -17.6499 121.933 -1 -16.4106 122.520 -17.6499 121.933 TC -17.6909 121.993 7 5 170
1956047S15124 1956 19 SI WA NOT_NAMED 1956-02-17 06:00:00 TS -17.4558 122.206 main 0 0 O_____P__OP___ jtwc_sh SH221956 -18.0000 122.100 -1 -16.5829 122.399 -18.0000 122.100 TC -18.0573 122.187 7 6 162
1956047S15124 1956 19 SI WA NOT_NAMED 1956-02-17 09:00:00 TS -17.7390 122.328 main 0 0 P_____P__PP___ SH221956 -18.3650 122.397 -1 -16.7606 122.282 -18.3650 122.397 TC -18.3980 122.470 7 6 154
1956047S15124 1956 19 SI WA NOT_NAMED 1956-02-17 11:00:00 TS -17.9175 122.447 main 0 0 P_____P__PO___ SH221956 -18.5947 122.659 -1 -16.8809 122.210 -18.5947 122.659 TC -18.6000 122.700 7 6 146
1956047S15124 1956 19 SI WA NOT_NAMED 1956-02-17 12:00:00 TS -18.0013 122.512 main 0 0 O_____P__OP___ jtwc_sh SH221956 -18.7000 122.800 -1 -16.9414 122.176 -18.7000 122.800 TC -18.6930 122.815 7 6 140
1956047S15124 1956 19 SI WA NOT_NAMED 1956-02-17 15:00:00 TS -18.2348 122.729 main 0 0 P_____P__PP___ SH221956 -18.9874 123.228 -1 -17.1227 122.087 -18.9874 123.228 TC -18.9415 123.215 7 6 133
1956047S15124 1956 19 SI WA NOT_NAMED 1956-02-17 18:00:00 TS -18.4285 122.992 main 0 0 O_____P__OP___ jtwc_sh SH221956 -19.2000 123.700 -1 -17.3021 122.022 -19.2000 123.700 TC -19.1465 123.676 7 6 123
1956047S15124 1956 19 SI WA NOT_NAMED 1956-02-17 21:00:00 TS -18.5765 123.290 main 0 0 P_____P__PP___ SH221956 -19.3225 124.200 -1 -17.4773 121.987 -19.3225 124.200 TC -19.3110 124.168 7 6 115
1956047S15124 1956 19 SI WA NOT_NAMED 1956-02-17 23:00:00 TS -18.6580 123.503 main 0 0 P_____P__PO___ SH221956 -19.3745 124.537 -1 -17.5905 121.984 -19.3745 124.537 TC -19.4000 124.500 7 7 112
1956047S15124 1956 19 SI WA NOT_NAMED 1956-02-18 00:00:00 TS -18.6975 123.610 main 0 0 O_____P__OP___ jtwc_sh SH221956 -19.4000 124.700 -1 -17.6458 121.990 -19.4000 124.700 TC -19.4417 124.659 7 7 112
1956047S15124 1956 19 SI WA NOT_NAMED 1956-02-18 01:00:00 TS -18.7398 123.717 975 bom main 0 0 P_____O__PP___ SH221956 -19.4359 124.856 -1 -17.7000 122.000 975 -19.4359 124.856 TC -19.4785 124.819 7 6 112
1956047S15124 1956 19 SI WA NOT_NAMED 1956-02-18 03:00:00 TS -18.8213 123.926 main 0 0 P_____P__PP___ SH221956 -19.5073 125.158 -1 -17.8072 121.987 975 -19.5073 125.158 TC -19.5394 125.142 7 7 111
1956047S15124 1956 19 SI WA NOT_NAMED 1956-02-18 06:00:00 TS -18.9314 124.257 main 0 0 O_____P__OP___ jtwc_sh SH221956 -19.6000 125.600 -1 -17.9626 122.014 975 -19.6000 125.600 TC -19.6080 125.626 7 7 107
1956047S15124 1956 19 SI WA NOT_NAMED 1956-02-18 09:00:00 TS -19.0191 124.619 main 0 0 P_____P__PP___ SH221956 -19.6499 126.050 -1 -18.1089 122.138 975 -19.6499 126.050 TC -19.6631 126.098 7 7 104
1956047S15124 1956 19 SI WA NOT_NAMED 1956-02-18 11:00:00 TS -19.0749 124.879 975 bom main 0 0 P_____O__PO___ SH221956 -19.6802 126.350 -1 -18.2000 122.300 975 -19.6802 126.350 TC -19.7000 126.400 7 8 103
1956047S15124 1956 19 SI WA NOT_NAMED 1956-02-18 12:00:00 TS -19.1036 125.017 main 0 0 O_____P__OP___ jtwc_sh SH221956 -19.7000 126.500 -1 -18.2416 122.418 -19.7000 126.500 TC -19.7174 126.546 7 8 103
1956047S15124 1956 19 SI WA NOT_NAMED 1956-02-18 15:00:00 TS -19.2031 125.461 main 0 0 P_____P__PP___ SH221956 -19.8000 126.965 -1 -18.3555 122.889 -19.8000 126.965 TC -19.7669 126.969 7 9 103
1956047S15124 1956 19 SI WA NOT_NAMED 1956-02-18 18:00:00 TS -19.3025 125.919 main 0 0 O_____P__OP___ jtwc_sh SH221956 -19.9000 127.400 -1 -18.4586 123.484 -19.9000 127.400 TC -19.8267 127.370 7 9 102
1956047S15124 1956 19 SI WA NOT_NAMED 1956-02-18 21:00:00 TS -19.3781 126.359 main 0 0 P_____P__PP___ SH221956 -19.9273 127.765 -1 -18.5582 124.140 -19.9273 127.765 TC -19.9155 127.753 7 8 101
1956047S15124 1956 19 SI WA NOT_NAMED 1956-02-18 23:00:00 TS -19.4413 126.643 main 0 0 P_____P__PO___ SH221956 -19.9630 127.989 -1 -18.6267 124.580 -19.9630 127.989 TC -20.0000 128.000 7 8 105
1956047S15124 1956 19 SI WA NOT_NAMED 1956-02-19 00:00:00 TS -19.4844 126.783 main 0 0 O_____P__OP___ jtwc_sh SH221956 -20.0000 128.100 -1 -18.6626 124.794 -20.0000 128.100 TC -20.0596 128.122 7 8 111
1956047S15124 1956 19 SI WA NOT_NAMED 1956-02-19 01:00:00 TS -19.5406 126.919 985 bom main 0 0 P_____O__PP___ SH221956 -20.0605 128.217 -1 -18.7000 125.000 985 -20.0605 128.217 TC -20.1259 128.242 7 8 118
1956047S15124 1956 19 SI WA NOT_NAMED 1956-02-19 03:00:00 TS -19.6757 127.169 main 0 0 P_____P__PP___ SH221956 -20.2199 128.450 -1 -18.7930 125.299 -20.2199 128.450 TC -20.2738 128.477 7 8 122
1956047S15124 1956 19 SI WA NOT_NAMED 1956-02-19 06:00:00 TS -19.9022 127.533 main 0 0 O_____P__OP___ jtwc_sh SH221956 -20.5000 128.800 -1 -18.9453 125.701 -20.5000 128.800 TC -20.5166 128.821 7 8 123
1956047S15124 1956 19 SI WA NOT_NAMED 1956-02-19 09:00:00 TS -20.1213 127.888 main 0 0 P_____P__PP___ SH221956 -20.7574 129.143 -1 -19.1094 126.063 -20.7574 129.143 TC -20.7568 129.166 7 8 123
1956047S15124 1956 19 SI WA NOT_NAMED 1956-02-19 11:00:00 TS -20.2617 128.125 main 0 0 P_____P__PO___ SH221956 -20.9223 129.378 -1 -19.2232 126.289 -20.9223 129.378 TC -20.9000 129.400 7 8 122
1956047S15124 1956 19 SI WA NOT_NAMED 1956-02-19 12:00:00 TS -20.3294 128.248 main 0 0 O_____P__OP___ jtwc_sh SH221956 -21.0000 129.500 -1 -19.2809 126.400 -21.0000 129.500 TC -20.9699 129.529 7 8 120
1956047S15124 1956 19 SI WA NOT_NAMED 1956-02-19 15:00:00 TS -20.5328 128.631 main 0 0 P_____P__PP___ SH221956 -21.2450 129.900 -1 -19.4554 126.730 -21.2450 129.900 TC -21.1637 129.924 7 8 116
1956047S15124 1956 19 SI WA NOT_NAMED 1956-02-19 18:00:00 TS -20.6876 129.016 main 0 0 O_____P__OP___ jtwc_sh SH221956 -21.4000 130.300 -1 -19.6285 127.070 -21.4000 130.300 TC -21.3140 130.316 7 8 108
1956047S15124 1956 19 SI WA NOT_NAMED 1956-02-19 21:00:00 TS -20.7618 129.395 main 0 0 P_____P__PP___ SH221956 -21.4025 130.680 -1 -19.7954 127.438 -21.4025 130.680 TC -21.3958 130.681 7 7 98
1956047S15124 1956 19 SI WA NOT_NAMED 1956-02-19 23:00:00 TS -20.7716 129.636 main 0 0 P_____P__PO___ SH221956 -21.3412 130.903 -1 -19.9009 127.706 -21.3412 130.903 TC -21.4000 130.900 7 7 91
1956047S15124 1956 19 SI WA NOT_NAMED 1956-02-20 00:00:00 TS -20.7666 129.749 main 0 0 O_____P__OP___ jtwc_sh SH221956 -21.3000 131.000 -1 -19.9513 127.850 -21.3000 131.000 TC -21.3817 130.994 7 6 87
1956047S15124 1956 19 SI WA NOT_NAMED 1956-02-20 01:00:00 TS -20.7595 129.857 990 bom main 0 0 P_____O__PP___ SH221956 -21.2640 131.081 -1 -20.0000 128.000 990 -21.2640 131.081 TC -21.3515 131.082 7 6 83
1956047S15124 1956 19 SI WA NOT_NAMED 1956-02-20 03:00:00 TS -20.7317 130.069 main 0 0 P_____P__PP___ SH221956 -21.1723 131.215 -1 -20.1088 128.341 990 -21.1723 131.215 TC -21.2609 131.243 7 6 78
1956047S15124 1956 19 SI WA NOT_NAMED 1956-02-20 06:00:00 TS -20.6550 130.377 main 0 0 O_____P__OP___ jtwc_sh SH221956 -21.0000 131.400 -1 -20.2453 128.864 991 -21.0000 131.400 TC -21.0705 131.457 7 6 73
1956047S15124 1956 19 SI WA NOT_NAMED 1956-02-20 08:00:00 TS -20.5856 130.593 992 bom main 0 0 P_____O__PP___ SH221956 -20.8746 131.559 -1 -20.3000 129.200 992 -20.8746 131.559 TC -20.9233 131.593 7 6 70
1956047S15124 1956 19 SI WA NOT_NAMED 1956-02-20 09:00:00 TS -20.5442 130.701 main 0 0 P_____P__PP___ SH221956 -20.8075 131.643 -1 -20.3081 129.358 -20.8075 131.643 TC -20.8479 131.660 7 7 66
1956047S15124 1956 19 SI WA NOT_NAMED 1956-02-20 11:00:00 TS -20.4526 130.916 main 0 0 P_____P__PO___ SH221956 -20.6693 131.814 -1 -20.2916 129.661 -20.6693 131.814 TC -20.7000 131.800 7 7 65
1956047S15124 1956 19 SI WA NOT_NAMED 1956-02-20 12:00:00 TS -20.4037 131.026 main 0 0 O_____P__OP___ jtwc_sh SH221956 -20.6000 131.900 -1 -20.2693 129.806 -20.6000 131.900 TC -20.6282 131.891 7 7 63
1956047S15124 1956 19 SI WA NOT_NAMED 1956-02-20 15:00:00 TS -20.2424 131.349 main 0 0 P_____P__PP___ SH221956 -20.3850 132.150 -1 -20.1582 130.215 -20.3850 132.150 TC -20.4072 132.175 7 7 62
1956047S15124 1956 19 SI WA NOT_NAMED 1956-02-20 18:00:00 TS -20.0860 131.660 main 0 0 O_____P__OP___ jtwc_sh SH221956 -20.2000 132.400 -1 -20.0033 130.590 -20.2000 132.400 TC -20.2043 132.449 7 6 63
1956047S15124 1956 19 SI WA NOT_NAMED 1956-02-20 21:00:00 TS -19.9518 131.964 main 0 0 P_____P__PP___ SH221956 -20.0551 132.680 -1 -19.8331 130.934 -20.0551 132.680 TC -20.0540 132.682 7 6 67
1956047S15124 1956 19 SI WA NOT_NAMED 1956-02-20 23:00:00 TS -19.8912 132.142 main 0 0 P_____P__PO___ SH221956 -20.0053 132.840 -1 -19.7251 131.148 -20.0053 132.840 TC -20.0000 132.800 7 5 71
1956047S15124 1956 19 SI WA NOT_NAMED 1956-02-20 23:30:00 TS -19.8817 132.182 996 bom main 0 0 P_____O__PP___ SH221956 -20.0008 132.872 -1 -19.7000 131.200 996 -20.0008 132.872 TC -19.9967 132.822 7 4 77
1956047S15124 1956 19 SI WA NOT_NAMED 1956-02-21 00:00:00 TS -19.8758 132.220 main 0 0 O_____P__OP___ jtwc_sh SH221956 -20.0000 132.900 -1 -19.6827 131.257 -20.0000 132.900 TC -19.9964 132.842 7 4 91
1956047S15124 1956 19 SI WA NOT_NAMED 1956-02-21 03:00:00 TS -19.8837 132.407 main 0 0 P_____P__PP___ SH221956 -20.0699 132.995 -1 -19.5836 131.587 -20.0699 132.995 TC -20.0462 132.920 7 3 100
1956047S15124 1956 19 SI WA NOT_NAMED 1956-02-21 06:00:00 TS -19.9295 132.537 main 0 0 O_____P__OP___ jtwc_sh SH221956 -20.2000 133.000 -1 -19.4946 131.893 -20.2000 133.000 TC -20.1603 132.941 7 2 112
1956047S15124 1956 19 SI WA NOT_NAMED 1956-02-21 09:00:00 TS -19.9713 132.633 main 0 0 P_____P__PP___ SH221956 -20.3000 132.965 -1 -19.4180 132.176 -20.3000 132.965 TC -20.3044 132.924 7 2 118
1956047S15124 1956 19 SI WA NOT_NAMED 1956-02-21 11:00:00 TS -20.0007 132.682 main 0 0 P_____P__PO___ SH221956 -20.3667 132.922 -1 -19.3751 132.351 -20.3667 132.922 TC -20.4000 132.900 7 2 123
1956047S15124 1956 19 SI WA NOT_NAMED 1956-02-21 12:00:00 TS -20.0138 132.705 main 0 0 O_____P__OP___ jtwc_sh SH221956 -20.4000 132.900 -1 -19.3563 132.434 -20.4000 132.900 TC -20.4370 132.893 7 2 122
1956047S15124 1956 19 SI WA NOT_NAMED 1956-02-21 15:00:00 TS -20.0564 132.773 main 0 0 P_____P__PP___ SH221956 -20.5000 132.850 -1 -19.3119 132.668 -20.5000 132.850 TC -20.5496 132.857 7 1 129
1956047S15124 1956 19 SI WA NOT_NAMED 1956-02-21 18:00:00 TS -20.1031 132.826 main 0 0 O_____P__OP___ jtwc_sh SH221956 -20.6000 132.800 -1 -19.2870 132.878 -20.6000 132.800 TC -20.6572 132.803 7 1 139
1956047S15124 1956 19 SI WA NOT_NAMED 1956-02-21 21:00:00 TS -20.1559 132.869 main 0 0 P_____P__PP___ SH221956 -20.7075 132.750 -1 -19.2840 133.064 -20.7075 132.750 TC -20.7505 132.741 7 2 166
1956047S15124 1956 19 SI WA NOT_NAMED 1956-02-21 23:00:00 TS -20.2361 132.878 main 0 0 P_____P__PO___ SH221956 -20.7724 132.717 -1 -19.2954 133.174 -20.7724 132.717 TC -20.8000 132.700 7 3 189
1956047S15124 1956 19 SI WA NOT_NAMED 1956-02-21 23:30:00 TS -20.2968 132.866 992 bom main 0 0 P_____O__PP___ SH221956 -20.7867 132.708 -1 -19.3000 133.200 992 -20.7867 132.708 TC -20.8102 132.692 7 8 0
1956047S15124 1956 19 SI WA NOT_NAMED 1956-02-22 00:00:00 TS -20.3639 132.850 main 0 0 O_____P__OP___ jtwc_sh SH221956 -20.8000 132.700 -1 -19.3019 133.231 -20.8000 132.700 TC -20.8196 132.683 7 3 189
1956047S15124 1956 19 SI WA NOT_NAMED 1956-02-22 03:00:00 TS -20.4798 132.834 main 0 0 P_____P__PP___ SH221956 -20.8650 132.650 -1 -19.3269 133.403 -20.8650 132.650 TC -20.8625 132.633 7 2 189
1956047S15124 1956 19 SI WA NOT_NAMED 1956-02-22 06:00:00 TS -20.5152 132.834 main 0 0 O_____P__OP___ jtwc_sh SH221956 -20.9000 132.600 -1 -19.3745 133.552 -20.9000 132.600 TC -20.8861 132.583 7 1 0
1956047S15124 1956 19 SI WA NOT_NAMED 1956-02-22 09:00:00 TS -20.5392 132.827 main 0 0 P_____P__PP___ SH221956 -20.9075 132.550 -1 -19.4447 133.676 -20.9075 132.550 TC -20.8969 132.533 7 0 200
1956047S15124 1956 19 SI WA NOT_NAMED 1956-02-22 11:00:00 TS -20.5523 132.819 main 0 0 P_____P__PO___ SH221956 -20.9026 132.517 -1 -19.5041 133.744 -20.9026 132.517 TC -20.9000 132.500 7 1 0
1956047S15124 1956 19 SI WA NOT_NAMED 1956-02-22 12:00:00 TS -20.5620 132.816 main 0 0 O_____P__OP___ jtwc_sh SH221956 -20.9000 132.500 -1 -19.5375 133.774 -20.9000 132.500 TC -20.9107 132.492 7 1 0
1956047S15124 1956 19 SI WA NOT_NAMED 1956-02-22 15:00:00 TS -20.5982 132.804 main 0 0 P_____P__PP___ SH221956 -20.9000 132.450 -1 -19.6527 133.846 -20.9000 132.450 TC -20.9403 132.472 7 1 213
1956047S15124 1956 19 SI WA NOT_NAMED 1956-02-22 18:00:00 TS -20.6361 132.783 main 0 0 O_____P__OP___ jtwc_sh SH221956 -20.9000 132.400 -1 -19.7902 133.891 -20.9000 132.400 TC -20.9542 132.439 7 1 209
1956047S15124 1956 19 SI WA NOT_NAMED 1956-02-22 21:00:00 TS -20.6829 132.760 main 0 0 P_____P__PP___ SH221956 -20.9224 132.380 -1 -19.9500 133.908 -20.9224 132.380 TC -20.9367 132.374 7 1 223
1956047S15124 1956 19 SI WA NOT_NAMED 1956-02-22 23:00:00 TS -20.7007 132.721 main 0 0 P_____P__PO___ SH221956 -20.9171 132.340 -1 -20.0688 133.903 -20.9171 132.340 TC -20.9000 132.300 7 1 250
1956047S15124 1956 19 SI WA NOT_NAMED 1956-02-22 23:30:00 TS -20.7021 132.704 992 bom main 0 0 P_____O__PP___ SH221956 -20.9100 132.322 -1 -20.1000 133.900 992 -20.9100 132.322 TC -20.8882 132.274 7 2 263
1956047S15124 1956 19 SI WA NOT_NAMED 1956-02-23 00:00:00 TS -20.7056 132.686 main 0 0 O_____P__OP___ jtwc_sh SH221956 -20.9000 132.300 -1 -20.1473 133.897 -20.9000 132.300 TC -20.8751 132.246 7 3 272
1956047S15124 1956 19 SI WA NOT_NAMED 1956-02-23 03:00:00 TS -20.6960 132.515 main 0 0 P_____P__PP___ SH221956 -20.7801 132.080 -1 -20.4545 133.856 -20.7801 132.080 TC -20.7694 132.044 7 4 280
1956047S15124 1956 19 SI WA NOT_NAMED 1956-02-23 06:00:00 TS -20.6447 132.298 main 0 0 O_____P__OP___ jtwc_sh SH221956 -20.6000 131.800 -1 -20.7570 133.789 -20.6000 131.800 TC -20.6218 131.805 7 4 288
1956047S15124 1956 19 SI WA NOT_NAMED 1956-02-23 09:00:00 TS -20.5618 132.084 main 0 0 P_____P__PP___ SH221956 -20.4075 131.535 -1 -20.9935 133.708 -20.4075 131.535 TC -20.4387 131.557 7 4 297
1956047S15124 1956 19 SI WA NOT_NAMED 1956-02-23 11:00:00 TS -20.4807 131.949 main 0 0 P_____P__PO___ SH221956 -20.2693 131.372 -1 -21.0842 133.653 -20.2693 131.372 TC -20.3000 131.400 7 4 305
1956047S15124 1956 19 SI WA NOT_NAMED 1956-02-23 12:00:00 TS -20.4382 131.900 main 0 0 O_____P__OP___ jtwc_sh SH221956 -20.2000 131.300 -1 -21.1026 133.626 -20.2000 131.300 TC -20.2503 131.374 7 4 314
1956047S15124 1956 19 SI WA NOT_NAMED 1956-02-23 13:00:00 TS -20.3941 131.859 bom main 0 0 P_____O__PP___ SH221956 -20.1385 131.241 -1 -21.1000 133.600 -20.1385 131.241 TC -20.1993 131.355 7 4 329
1956047S15124 1956 19 SI WA NOT_NAMED 1956-02-23 15:00:00 TS -20.2795 131.796 main 0 0 P_____P__PP___ SH221956 -20.0149 131.143 -1 -21.0102 133.568 -20.0149 131.143 TC -20.0876 131.323 7 5 335
1956047S15124 1956 19 SI WA NOT_NAMED 1956-02-23 18:00:00 TS -20.0513 131.691 main 0 0 O_____P__OP___ jtwc_sh SH221956 -19.8000 131.000 -1 -20.7533 133.521 -19.8000 131.000 TC -19.8745 131.231 7 6 329
1956047S15124 1956 19 SI WA NOT_NAMED 1956-02-23 21:00:00 TS -19.7440 131.447 main 0 0 P_____P__PP___ SH221956 -19.5892 130.914 -1 -20.4081 133.464 -19.5892 130.914 TC -19.5716 130.992 7 10 318
1956047S15124 1956 19 SI WA NOT_NAMED 1956-02-23 23:00:00 TS -19.4574 131.117 main 0 0 P_____P__PO___ SH221956 -19.3618 130.750 -1 -20.1611 133.414 -19.3618 130.750 TC -19.3000 130.700 7 17 308
1956047S15124 1956 19 SI WA NOT_NAMED 1956-02-23 23:30:00 TS -19.3227 130.867 995 bom main 0 0 P_____O__PP___ SH221956 -19.2857 130.682 -1 -20.1000 133.400 995 -19.2857 130.682 TC -19.2026 130.602 7 36 299
1956047S15124 1956 19 SI WA NOT_NAMED 1956-02-24 00:00:00 TS -19.1664 130.566 main 0 0 O________OP___ jtwc_sh SH221956 -19.2000 130.600 -1 -19.2000 130.600 TC -19.0991 130.497 7 23 312
1956047S15124 1956 19 SI WA NOT_NAMED 1956-02-24 03:00:00 TS -18.4212 129.802 main 0 0 P________PP___ SH221956 -18.4375 129.841 -1 -18.4375 129.841 TC -18.3884 129.723 7 23 313
1956047S15124 1956 19 SI WA NOT_NAMED 1956-02-24 06:00:00 TS -17.6076 128.786 main 0 0 O________OP___ jtwc_sh SH221956 -17.6000 128.800 -1 -17.6000 128.800 TC -17.6227 128.757 7 25 306
1956047S15124 1956 19 SI WA NOT_NAMED 1956-02-24 09:00:00 TS -16.9431 127.695 main 0 0 P________PP___ SH221956 -16.9446 127.710 -1 -16.9446 127.710 TC -16.9401 127.666 7 25 299
1956047S15124 1956 19 SI WA NOT_NAMED 1956-02-24 11:00:00 TS -16.6123 126.909 main 0 0 P________PO___ SH221956 -16.6185 126.913 -1 -16.6185 126.913 TC -16.6000 126.900 7 25 291
1956047S15124 1956 19 SI WA NOT_NAMED 1956-02-24 12:00:00 TS -16.4991 126.500 main 0 0 O________OP___ jtwc_sh SH221956 -16.5000 126.500 -1 -16.5000 126.500 TC -16.4973 126.499 7 25 281
1956047S15124 1956 19 SI WA NOT_NAMED 1956-02-24 15:00:00 TS -16.3025 125.193 main 0 0 P________PP___ SH221956 -16.2879 125.178 -1 -16.2879 125.178 TC -16.3319 125.222 7 25 274
1956047S15124 1956 19 SI WA NOT_NAMED 1956-02-24 18:00:00 TS -16.3131 123.911 main 10 0 O________OP___ jtwc_sh SH221956 -16.3000 123.900 -1 -16.3000 123.900 TC -16.3394 123.933 7 23 266
1956047S15124 1956 19 SI WA NOT_NAMED 1956-02-24 21:00:00 TS -16.4495 122.773 main 15 15 P________PP___ SH221956 -16.4397 122.781 -1 -16.4397 122.781 TC -16.4692 122.757 7 21 260
1956047S15124 1956 19 SI WA NOT_NAMED 1956-02-24 23:00:00 TS -16.6041 122.141 main 54 54 P________PO___ SH221956 -16.6061 122.161 -1 -16.6061 122.161 TC -16.6000 122.100 7 18 255
1956047S15124 1956 19 SI WA NOT_NAMED 1956-02-24 23:30:00 TS -16.6438 122.007 998 bom main 62 54 P________PP___ SH221956 -16.6526 122.026 -1 -16.6526 122.026 TC -16.6262 121.968 7 16 252
1956047S15124 1956 19 SI WA NOT_NAMED 1956-02-25 00:00:00 TS -16.6852 121.881 main 61 61 O________OP___ jtwc_sh SH221956 -16.7000 121.900 -1 -16.7000 121.900 TC -16.6555 121.844 7 13 246
1956047S15124 1956 19 SI WA NOT_NAMED 1956-02-25 03:00:00 TS -16.9565 121.281 main 101 101 P________PP___ SH221956 -16.9918 121.302 -1 -16.9918 121.302 TC -16.8860 121.237 7 11 239
1956047S15124 1956 19 SI WA NOT_NAMED 1956-02-25 06:00:00 TS -17.2602 120.871 main 131 131 O________OP___ jtwc_sh SH221956 -17.3000 120.900 -1 -17.3000 120.900 TC -17.1805 120.813 7 9 231
1956047S15124 1956 19 SI WA NOT_NAMED 1956-02-25 09:00:00 TS -17.5373 120.516 main 170 169 P________PP___ SH221956 -17.5573 120.527 -1 -17.5573 120.527 TC -17.4974 120.493 7 8 230
1956047S15124 1956 19 SI WA NOT_NAMED 1956-02-25 11:00:00 TS -17.7128 120.306 main 178 178 P________PO___ SH221956 -17.7192 120.309 -1 -17.7192 120.309 TC -17.7000 120.300 7 8 230
1956047S15124 1956 19 SI WA NOT_NAMED 1956-02-25 12:00:00 TS -17.7951 120.190 main 181 181 O________OP___ jtwc_sh SH221956 -17.8000 120.200 -1 -17.8000 120.200 TC -17.7852 120.171 7 8 233
1956047S15124 1956 19 SI WA NOT_NAMED 1956-02-25 15:00:00 TS -18.0489 119.832 main 211 192 P________PP___ SH221956 -18.0575 119.842 -1 -18.0575 119.842 TC -18.0316 119.810 7 8 233
1956047S15124 1956 19 SI WA NOT_NAMED 1956-02-25 18:00:00 TS -18.2872 119.495 main 192 175 O________OP___ jtwc_sh SH221956 -18.3000 119.500 -1 -18.3000 119.500 TC -18.2617 119.484 7 8 234
1956047S15124 1956 19 SI WA NOT_NAMED 1956-02-25 21:00:00 TS -18.5007 119.185 main 178 167 P________PP___ SH221956 -18.5149 119.185 -1 -18.5149 119.185 TC -18.4722 119.186 7 7 234
1956047S15124 1956 19 SI WA NOT_NAMED 1956-02-25 23:00:00 TS -18.6278 118.994 main 168 158 P________PO___ SH221956 -18.6416 118.992 -1 -18.6416 118.992 TC -18.6000 119.000 7 7 235
1956047S15124 1956 19 SI WA NOT_NAMED 1956-02-26 00:00:00 TS -18.6871 118.902 main 158 158 O________OP___ jtwc_sh SH221956 -18.7000 118.900 -1 -18.7000 118.900 TC -18.6612 118.905 7 6 236
1956047S15124 1956 19 SI WA NOT_NAMED 1956-02-26 01:00:00 TS -18.7454 118.812 994 bom main 159 148 P________PP___ SH221956 -18.7583 118.811 -1 -18.7583 118.811 TC -18.7196 118.813 7 6 236
1956047S15124 1956 19 SI WA NOT_NAMED 1956-02-26 03:00:00 TS -18.8529 118.641 main 144 138 P________PP___ SH221956 -18.8649 118.642 -1 -18.8649 118.642 TC -18.8289 118.637 7 6 238
1956047S15124 1956 19 SI WA NOT_NAMED 1956-02-26 06:00:00 TS -18.9925 118.396 main 143 139 O________OP___ jtwc_sh SH221956 -19.0000 118.400 -1 -19.0000 118.400 TC -18.9776 118.388 7 5 241
1956047S15124 1956 19 SI WA NOT_NAMED 1956-02-26 09:00:00 TS -19.1045 118.151 main 145 134 P________PP___ SH221956 -19.1000 118.150 -1 -19.1000 118.150 TC -19.1135 118.153 7 5 245
1956047S15124 1956 19 SI WA NOT_NAMED 1956-02-26 11:00:00 TS -19.1757 117.989 main 134 134 P________PO___ SH221956 -19.1636 117.983 -1 -19.1636 117.983 TC -19.2000 118.000 7 5 244
1956047S15124 1956 19 SI WA NOT_NAMED 1956-02-26 12:00:00 TS -19.2158 117.906 main 135 119 O________OP___ jtwc_sh SH221956 -19.2000 117.900 -1 -19.2000 117.900 TC -19.2475 117.917 7 6 240
1956047S15124 1956 19 SI WA NOT_NAMED 1956-02-26 15:00:00 TS -19.3618 117.652 main 119 118 P________PP___ SH221956 -19.3500 117.643 -1 -19.3500 117.643 TC -19.3854 117.670 7 5 238
1956047S15124 1956 19 SI WA NOT_NAMED 1956-02-26 18:00:00 TS -19.5047 117.412 main 123 118 O________OP___ jtwc_sh SH221956 -19.5000 117.400 -1 -19.5000 117.400 TC -19.5142 117.437 7 5 240
1956047S15124 1956 19 SI WA NOT_NAMED 1956-02-26 21:00:00 TS -19.6152 117.193 main 119 105 P________PP___ SH221956 -19.6075 117.177 -1 -19.6075 117.177 TC -19.6307 117.225 7 4 242
1956047S15124 1956 19 SI WA NOT_NAMED 1956-02-26 23:00:00 TS -19.6795 117.068 main 105 102 P________PO___ SH221956 -19.6693 117.053 -1 -19.6693 117.053 TC -19.7000 117.100 7 4 240
1956047S15124 1956 19 SI WA NOT_NAMED 1956-02-27 00:00:00 TS -19.7110 117.015 bom main 102 102 O________OP___ jtwc_sh SH221956 -19.7000 117.000 -1 -19.7000 117.000 TC -19.7329 117.046 7 3 236
1956047S15124 1956 19 SI WA NOT_NAMED 1956-02-27 01:00:00 TS -19.7453 116.969 980 bom main 102 90 P________PP___ SH221956 -19.7359 116.955 -1 -19.7359 116.955 TC -19.7639 116.996 7 3 230
1956047S15124 1956 19 SI WA NOT_NAMED 1956-02-27 03:00:00 TS -19.8120 116.892 main 90 78 P________PP___ SH221956 -19.8075 116.885 -1 -19.8075 116.885 TC -19.8210 116.907 7 3 227
1956047S15124 1956 19 SI WA NOT_NAMED 1956-02-27 06:00:00 TS -19.8987 116.797 main 78 67 O________OP___ jtwc_sh SH221956 -19.9000 116.800 -1 -19.9000 116.800 TC -19.8960 116.790 7 2 231
1956047S15124 1956 19 SI WA NOT_NAMED 1956-02-27 09:00:00 TS -19.9586 116.698 main 67 67 P________PP___ SH221956 -19.9575 116.707 -1 -19.9575 116.707 TC -19.9608 116.678 7 2 240
1956047S15124 1956 19 SI WA NOT_NAMED 1956-02-27 11:00:00 TS -19.9906 116.626 main 67 67 P________PO___ SH221956 -19.9859 116.639 -1 -19.9859 116.639 TC -20.0000 116.600 7 2 245
1956047S15124 1956 19 SI WA NOT_NAMED 1956-02-27 12:00:00 TS -20.0063 116.585 main 67 59 O________OP___ jtwc_sh SH221956 -20.0000 116.600 -1 -20.0000 116.600 TC -20.0188 116.555 7 3 249
1956047S15124 1956 19 SI WA NOT_NAMED 1956-02-27 15:00:00 TS -20.0564 116.448 main 64 64 P________PP___ SH221956 -20.0500 116.465 -1 -20.0500 116.465 TC -20.0691 116.413 7 3 251
1956047S15124 1956 19 SI WA NOT_NAMED 1956-02-27 18:00:00 TS -20.1051 116.288 main 69 69 O________OP___ jtwc_sh SH221956 -20.1000 116.300 -1 -20.1000 116.300 TC -20.1153 116.264 7 1 294
1956047S15124 1956 19 SI WA NOT_NAMED 1956-02-27 21:00:00 TS -20.0086 116.332 main 79 74 P________PP___ SH221956 -20.1425 116.100 -1 -20.1425 116.100 TC -20.1635 116.108 7 4 47
1956047S15124 1956 19 SI WA NOT_NAMED 1956-02-27 23:00:00 TS -19.8523 116.574 main 78 78 P________PO___ SH221956 -20.1776 115.964 -1 -20.1776 115.964 TC -20.2000 116.000 7 10 58
1956047S15124 1956 19 SI WA NOT_NAMED 1956-02-28 00:00:00 TS -19.7357 116.788 main 100 100 O________OP___ jtwc_sh SH221956 -20.2000 115.900 -1 -20.2000 115.900 TC -20.2179 115.945 7 12 61
1956047S15124 1956 19 SI WA NOT_NAMED 1956-02-28 01:00:00 TS -19.6607 116.942 970 bom main 101 101 P_____O__PP___ SH221956 -20.2302 115.847 -1 -18.7000 118.800 970 -20.2302 115.847 TC -20.2364 115.889 7 2 63
1956047S15124 1956 19 SI WA NOT_NAMED 1956-02-28 03:00:00 TS -19.6887 116.888 main 101 89 P_____P__PP___ SH221956 -20.2999 115.750 -1 -18.7591 118.594 -20.2999 115.750 TC -20.2758 115.774 7 3 241
1956047S15124 1956 19 SI WA NOT_NAMED 1956-02-28 06:00:00 TS -19.7986 116.676 main 89 81 O_____P__OP___ jtwc_sh SH221956 -20.4000 115.600 -1 -18.8512 118.312 -20.4000 115.600 TC -20.3445 115.598 7 4 245
1956047S15124 1956 19 SI WA NOT_NAMED 1956-02-28 09:00:00 TS -19.8811 116.456 main 81 81 P_____P__PP___ SH221956 -20.4425 115.400 -1 -18.9472 118.058 -20.4425 115.400 TC -20.4302 115.419 7 4 248
1956047S15124 1956 19 SI WA NOT_NAMED 1956-02-28 11:00:00 TS -19.9365 116.315 main 88 79 P_____P__PO___ SH221956 -20.4745 115.264 -1 -19.0131 117.903 -20.4745 115.264 TC -20.5000 115.300 7 4 246
1956047S15124 1956 19 SI WA NOT_NAMED 1956-02-28 12:00:00 TS -19.9669 116.250 main 84 83 O_____P__OP___ jtwc_sh SH221956 -20.5000 115.200 -1 -19.0465 117.829 -20.5000 115.200 TC -20.5337 115.248 7 4 238
1956047S15124 1956 19 SI WA NOT_NAMED 1956-02-28 15:00:00 TS -20.0783 116.076 main 83 81 P_____P__PP___ SH221956 -20.6274 115.050 -1 -19.1485 117.618 -20.6274 115.050 TC -20.6489 115.093 7 4 233
1956047S15124 1956 19 SI WA NOT_NAMED 1956-02-28 18:00:00 TS -20.2095 115.908 main 84 76 O_____P__OP___ jtwc_sh SH221956 -20.8000 114.900 -1 -19.2526 117.423 -20.8000 114.900 TC -20.7900 114.931 7 5 231
1956047S15124 1956 19 SI WA NOT_NAMED 1956-02-28 21:00:00 TS -20.3999 115.650 main 76 73 P_____P__PP___ SH221956 -20.9849 114.722 -1 -19.3582 117.238 -20.9849 114.722 TC -20.9634 114.745 7 7 232
1956047S15124 1956 19 SI WA NOT_NAMED 1956-02-28 23:00:00 TS -20.5643 115.430 main 76 76 P_____P__PO___ SH221956 -21.1250 114.581 -1 -19.4290 117.119 -21.1250 114.581 TC -21.1000 114.600 7 9 232
1956047S15124 1956 19 SI WA NOT_NAMED 1956-02-29 00:00:00 TS -20.6867 115.256 main 76 76 O_____P__OP___ jtwc_sh SH221956 -21.2000 114.500 -1 -19.4645 117.059 -21.2000 114.500 TC -21.1664 114.514 7 17 233
1956047S15124 1956 19 SI WA NOT_NAMED 1956-02-29 01:00:00 TS -20.9098 114.932 960 bom main 84 70 P_____O__PP___ SH221956 -21.2750 114.411 -1 -19.5000 117.000 960 4 -21.2750 114.411 TC -21.2366 114.423 7 15 233
1956047S15124 1956 19 SI WA NOT_NAMED 1956-02-29 03:00:00 TS -21.1525 114.604 main 63 45 P________PP___ SH221956 -21.4350 114.215 -1 -21.4350 114.215 TC -21.3894 114.229 7 12 231
1956047S15124 1956 19 SI WA NOT_NAMED 1956-02-29 06:00:00 TS -21.5252 114.128 main 44 22 O________OP___ jtwc_sh SH221956 -21.7000 113.900 -1 -21.7000 113.900 TC -21.6531 113.917 7 12 229
1956047S15124 1956 19 SI WA NOT_NAMED 1956-02-29 09:00:00 TS -21.9729 113.595 main 32 32 P________PP___ SH221956 -21.9775 113.592 -1 -21.9775 113.592 TC -21.9637 113.602 7 11 226
1956047S15124 1956 19 SI WA NOT_NAMED 1956-02-29 11:00:00 TS -22.1906 113.396 main 42 42 P________PO___ SH221956 -22.1859 113.394 -1 -22.1859 113.394 TC -22.2000 113.400 7 9 220
1956047S15124 1956 19 SI WA NOT_NAMED 1956-02-29 12:00:00 TS -22.3039 113.300 main 45 38 O________OP___ jtwc_sh SH221956 -22.3000 113.300 -1 -22.3000 113.300 TC -22.3118 113.299 7 9 216
1956047S15124 1956 19 SI WA NOT_NAMED 1956-02-29 15:00:00 TS -22.6682 113.029 main 62 62 P________PP___ SH221956 -22.6624 113.042 -1 -22.6624 113.042 TC -22.6797 113.003 7 9 211
1956047S15124 1956 19 SI WA NOT_NAMED 1956-02-29 18:00:00 TS -23.1028 112.778 main 99 99 O________OP___ jtwc_sh SH221956 -23.1000 112.800 -1 -23.1000 112.800 TC -23.1084 112.732 7 10 207
1956047S15124 1956 19 SI WA NOT_NAMED 1956-02-29 21:00:00 TS -23.5978 112.517 main 107 102 P________PP___ SH221956 -23.5901 112.520 -1 -23.5901 112.520 TC -23.6133 112.511 7 12 203
1956047S15124 1956 19 SI WA NOT_NAMED 1956-02-29 23:00:00 TS -23.9869 112.374 main 110 106 P________PO___ SH221956 -23.9803 112.361 -1 -23.9803 112.361 TC -24.0000 112.400 7 13 197
1956047S15124 1956 19 SI WA NOT_NAMED 1956-03-01 00:00:00 TS -24.2057 112.314 main 113 111 O________OP___ jtwc_sh SH221956 -24.2000 112.300 -1 -24.2000 112.300 TC -24.2170 112.343 7 14 192
1956047S15124 1956 19 SI WA NOT_NAMED 1956-03-01 01:00:00 TS -24.4445 112.268 960 bom main 111 111 P________PP___ SH221956 -24.4433 112.255 -1 -24.4433 112.255 TC -24.4469 112.293 7 15 187
1956047S15124 1956 19 SI WA NOT_NAMED 1956-03-01 03:00:00 TS -24.9640 112.208 main 138 118 P________PP___ SH221956 -24.9774 112.205 -1 -24.9774 112.205 TC -24.9372 112.216 7 16 183
1956047S15124 1956 19 SI WA NOT_NAMED 1956-03-01 06:00:00 TS -25.7726 112.188 main 114 109 O________OP___ jtwc_sh SH221956 -25.8000 112.200 -1 -25.8000 112.200 TC -25.7177 112.165 7 16 0
1956047S15124 1956 19 SI WA NOT_NAMED 1956-03-01 09:00:00 TS -26.5157 112.202 main 111 111 P________PP___ SH221956 -26.5224 112.198 -1 -26.5224 112.198 TC -26.5024 112.209 7 15 177
1956047S15124 1956 19 SI WA NOT_NAMED 1956-03-01 11:00:00 TS -26.9850 112.267 main 126 126 P________PO___ SH221956 -26.9775 112.250 -1 -26.9775 112.250 TC -27.0000 112.300 7 14 171
1956047S15124 1956 19 SI WA NOT_NAMED 1956-03-01 12:00:00 TS -27.2142 112.326 main 140 136 O________OP___ jtwc_sh SH221956 -27.2000 112.300 -1 -27.2000 112.300 TC -27.2354 112.366 7 14 162
1956047S15124 1956 19 SI WA NOT_NAMED 1956-03-01 15:00:00 TS -27.8726 112.595 main 147 131 P________PP___ SH221956 -27.8553 112.554 -1 -27.8553 112.554 TC -27.8900 112.637 7 14 156
1956047S15124 1956 19 SI WA NOT_NAMED 1956-03-01 18:00:00 TS -28.4905 112.957 main 125 118 O________OP___ jtwc_sh SH221956 -28.5000 112.900 -1 -28.5000 112.900 TC -28.4842 112.994 7 14 149
1956047S15124 1956 19 SI WA NOT_NAMED 1956-03-01 21:00:00 NR -29.0400 113.408 main 118 103 __________P___ SH221956 -1 TC -29.0400 113.408 7 13 144
1956047S15124 1956 19 SI WA NOT_NAMED 1956-03-01 23:00:00 NR -29.4000 113.700 main 110 __________O___ SH221956 -1 TC -29.4000 113.700 7 13 145

About IBTrACS Database

This database is a web-friendly format of International Best Track Archive for Climate Stewardship (IBTrACS), a global best track data archive curated by NOAA dating back to 1842.

Updated: 2021-12-03